Time;durP1;ratioP1;P1;durP2;ratioP2;P2;SDS_P1;SDS_P2;PMS_P1;PMS_P2;Temp;Humidity;BMP_temperature;BMP_pressure;BME280_temperature;BME280_humidity;BME280_pressure;Samples;Min_cycle;Max_cycle;Signal;HPM_P1;HPM_P2
2022/09/07 00:01:39;;;;;;;7.10;2.55;;;;;;;;;;5115597;27;20509;-83
2022/09/07 00:04:05;;;;;;;3.30;1.50;;;;;;;;;;5131640;27;20125;-82
2022/09/07 00:06:33;;;;;;;4.32;1.55;;;;;;;;;;5123935;27;20130;-83
2022/09/07 00:09:00;;;;;;;4.18;1.73;;;;;;;;;;5124218;27;20089;-84
2022/09/07 00:11:26;;;;;;;5.80;1.60;;;;;;;;;;5144032;27;20146;-84
2022/09/07 00:13:52;;;;;;;6.35;1.80;;;;;;;;;;5151677;27;20038;-86
2022/09/07 00:16:22;;;;;;;7.25;1.98;;;;;;;;;;5127045;27;20035;-88
2022/09/07 00:18:48;;;;;;;5.60;1.92;;;;;;;;;;5135713;27;20050;-85
2022/09/07 00:21:15;;;;;;;7.07;2.20;;;;;;;;;;5139706;27;20522;-87
2022/09/07 00:23:41;;;;;;;6.75;2.20;;;;;;;;;;5145043;27;20043;-85
2022/09/07 00:26:09;;;;;;;6.05;2.10;;;;;;;;;;5120248;27;20042;-86
2022/09/07 00:28:36;;;;;;;7.00;2.63;;;;;;;;;;5141008;27;20409;-85
2022/09/07 00:31:02;;;;;;;11.38;2.80;;;;;;;;;;5142940;27;20050;-88
2022/09/07 00:33:29;;;;;;;8.80;2.42;;;;;;;;;;5131376;27;20117;-84
2022/09/07 00:35:55;;;;;;;9.02;2.35;;;;;;;;;;5126637;27;21402;-86
2022/09/07 00:38:21;;;;;;;5.18;2.22;;;;;;;;;;5127003;27;20046;-84
2022/09/07 00:40:47;;;;;;;7.78;2.53;;;;;;;;;;5147663;27;21721;-83
2022/09/07 00:43:15;;;;;;;7.55;2.20;;;;;;;;;;5136780;27;20043;-84
2022/09/07 00:45:41;;;;;;;7.57;2.58;;;;;;;;;;5133157;27;20039;-83
2022/09/07 00:48:17;;;;;;;13.15;2.58;;;;;;;;;;5136801;27;20045;-82
2022/09/07 00:50:56;;;;;;;7.38;2.35;;;;;;;;;;5135030;27;20042;-82
2022/09/07 00:53:27;;;;;;;5.82;2.30;;;;;;;;;;5112877;27;20043;-83
2022/09/07 00:55:55;;;;;;;7.25;2.40;;;;;;;;;;5129199;27;20047;-83
2022/09/07 00:58:21;;;;;;;10.05;2.38;;;;;;;;;;5135809;27;20045;-82
2022/09/07 01:00:48;;;;;;;7.07;2.20;;;;;;;;;;5142463;27;20039;-82
2022/09/07 01:03:19;;;;;;;8.82;2.13;;;;;;;;;;5160757;27;20045;-83
2022/09/07 01:05:52;;;;;;;10.23;2.45;;;;;;;;;;5131050;27;20122;-82
2022/09/07 01:08:18;;;;;;;9.48;2.60;;;;;;;;;;5115184;27;20551;-82
2022/09/07 01:10:45;;;;;;;5.82;2.30;;;;;;;;;;5142947;27;20121;-83
2022/09/07 01:13:11;;;;;;;7.47;2.60;;;;;;;;;;5126776;27;20051;-82
2022/09/07 01:15:50;;;;;;;6.72;2.33;;;;;;;;;;5143052;27;20035;-82
2022/09/07 01:18:27;;;;;;;7.65;2.60;;;;;;;;;;5111875;27;20100;-83
2022/09/07 01:21:13;;;;;;;6.20;2.40;;;;;;;;;;5152203;27;20038;-83
2022/09/07 01:23:57;;;;;;;6.57;2.22;;;;;;;;;;5151376;27;20055;-83
2022/09/07 01:26:33;;;;;;;8.65;2.58;;;;;;;;;;5117545;27;20055;-83
2022/09/07 01:29:14;;;;;;;7.40;2.70;;;;;;;;;;5128760;27;20042;-83
2022/09/07 01:32:19;;;;;;;5.15;2.30;;;;;;;;;;5113497;27;20129;-82
2022/09/07 01:34:48;;;;;;;7.25;2.30;;;;;;;;;;5048539;28;20512;-84
2022/09/07 01:37:34;;;;;;;6.47;2.35;;;;;;;;;;5053164;28;20040;-84
2022/09/07 01:40:05;;;;;;;7.13;2.17;;;;;;;;;;5116990;27;20054;-82
2022/09/07 01:42:34;;;;;;;5.20;2.33;;;;;;;;;;5132896;27;20410;-82
2022/09/07 01:45:01;;;;;;;5.72;2.20;;;;;;;;;;5122191;27;20035;-82
2022/09/07 01:47:36;;;;;;;5.20;2.20;;;;;;;;;;5122750;27;20050;-82
2022/09/07 01:50:02;;;;;;;11.20;2.67;;;;;;;;;;5133839;27;20046;-83
2022/09/07 01:52:39;;;;;;;5.82;2.42;;;;;;;;;;5132875;27;20407;-82
2022/09/07 01:55:17;;;;;;;4.35;1.90;;;;;;;;;;5141776;27;20039;-84
2022/09/07 01:57:45;;;;;;;6.40;2.05;;;;;;;;;;5119572;27;20480;-82
2022/09/07 02:00:15;;;;;;;5.80;2.17;;;;;;;;;;5142217;27;20038;-83
2022/09/07 02:02:51;;;;;;;4.65;2.10;;;;;;;;;;5146686;27;20046;-83
2022/09/07 02:05:20;;;;;;;3.22;1.80;;;;;;;;;;5120915;27;20051;-82
2022/09/07 02:07:49;;;;;;;5.97;2.00;;;;;;;;;;5125108;27;20043;-83
2022/09/07 02:10:17;;;;;;;3.58;1.77;;;;;;;;;;5130255;27;20397;-82
2022/09/07 02:12:50;;;;;;;4.32;1.77;;;;;;;;;;5136340;27;20497;-82
2022/09/07 02:15:19;;;;;;;4.75;2.50;;;;;;;;;;5135077;27;20051;-82
2022/09/07 02:17:49;;;;;;;5.55;2.00;;;;;;;;;;5141692;27;20435;-83
2022/09/07 02:20:18;;;;;;;5.22;1.90;;;;;;;;;;5136142;27;20058;-83
2022/09/07 02:22:46;;;;;;;3.05;1.88;;;;;;;;;;5132550;27;20083;-83
2022/09/07 02:25:16;;;;;;;4.47;2.10;;;;;;;;;;5140194;27;20069;-82
2022/09/07 02:27:48;;;;;;;4.20;1.75;;;;;;;;;;5126798;27;20046;-82
2022/09/07 02:30:14;;;;;;;3.33;1.65;;;;;;;;;;5116931;27;20538;-83
2022/09/07 02:32:40;;;;;;;5.00;1.90;;;;;;;;;;5143532;27;20047;-83
2022/09/07 02:35:06;;;;;;;3.25;1.95;;;;;;;;;;5134061;27;20047;-84
2022/09/07 02:37:33;;;;;;;4.45;1.67;;;;;;;;;;5120815;27;20054;-83
2022/09/07 02:39:59;;;;;;;5.50;1.90;;;;;;;;;;5120396;27;20045;-84
2022/09/07 02:42:29;;;;;;;4.10;1.80;;;;;;;;;;5139984;27;20068;-84
2022/09/07 02:44:55;;;;;;;2.22;1.40;;;;;;;;;;5134913;27;20043;-83
2022/09/07 02:47:21;;;;;;;2.05;1.42;;;;;;;;;;5127005;27;20043;-84
2022/09/07 02:49:46;;;;;;;3.22;1.38;;;;;;;;;;5147555;27;20046;-83
2022/09/07 02:52:16;;;;;;;1.40;1.33;;;;;;;;;;5133754;27;20069;-81
2022/09/07 02:55:05;;;;;;;3.60;1.23;;;;;;;;;;5124904;27;20407;-84
2022/09/07 02:57:57;;;;;;;3.70;1.30;;;;;;;;;;5085571;27;20055;-83
2022/09/07 03:00:25;;;;;;;2.60;1.60;;;;;;;;;;5115106;27;21333;-84
2022/09/07 03:02:54;;;;;;;1.63;1.50;;;;;;;;;;5119183;27;20386;-83
2022/09/07 03:05:44;;;;;;;3.30;1.40;;;;;;;;;;5124263;27;20497;-84
2022/09/07 03:08:21;;;;;;;4.68;1.55;;;;;;;;;;5131355;27;20137;-84
2022/09/07 03:10:48;;;;;;;2.88;1.50;;;;;;;;;;5115737;27;20428;-83
2022/09/07 03:13:21;;;;;;;1.85;1.30;;;;;;;;;;5151866;27;20400;-84
2022/09/07 03:15:47;;;;;;;2.53;1.50;;;;;;;;;;5139422;27;20074;-83
2022/09/07 03:18:13;;;;;;;2.38;1.30;;;;;;;;;;5153261;27;20041;-84
2022/09/07 03:20:39;;;;;;;4.18;1.50;;;;;;;;;;5122408;27;20052;-84
2022/09/07 03:23:05;;;;;;;3.10;1.60;;;;;;;;;;5119221;27;20138;-83
2022/09/07 03:25:31;;;;;;;3.78;1.98;;;;;;;;;;5120336;27;20043;-83
2022/09/07 03:27:57;;;;;;;3.85;2.00;;;;;;;;;;5146797;27;20492;-83
2022/09/07 03:30:23;;;;;;;4.60;2.13;;;;;;;;;;5136796;27;20051;-84
2022/09/07 03:32:50;;;;;;;2.33;1.88;;;;;;;;;;5148509;27;20051;-83
2022/09/07 03:35:16;;;;;;;4.15;2.10;;;;;;;;;;5130269;27;20143;-83
2022/09/07 03:37:42;;;;;;;5.68;2.35;;;;;;;;;;5122110;27;20058;-83
2022/09/07 03:40:09;;;;;;;3.88;2.00;;;;;;;;;;5123765;27;20042;-83
2022/09/07 03:42:35;;;;;;;4.47;2.50;;;;;;;;;;5148308;27;20397;-83
2022/09/07 03:45:02;;;;;;;5.97;2.70;;;;;;;;;;5139068;27;20035;-83
2022/09/07 03:47:28;;;;;;;5.30;2.63;;;;;;;;;;5125002;27;20086;-83
2022/09/07 03:49:54;;;;;;;4.45;2.30;;;;;;;;;;5150516;27;20035;-83
2022/09/07 03:52:20;;;;;;;7.47;2.67;;;;;;;;;;5150426;27;20099;-83
2022/09/07 03:54:46;;;;;;;3.38;2.65;;;;;;;;;;5129191;27;20405;-83
2022/09/07 03:57:12;;;;;;;6.18;2.70;;;;;;;;;;5152440;27;20035;-82
2022/09/07 03:59:38;;;;;;;7.47;2.83;;;;;;;;;;5135055;27;20409;-83
2022/09/07 04:02:04;;;;;;;4.50;2.70;;;;;;;;;;5115387;27;20553;-84
2022/09/07 04:04:30;;;;;;;4.68;2.60;;;;;;;;;;5126302;27;20134;-83
2022/09/07 04:06:56;;;;;;;8.18;2.90;;;;;;;;;;5128041;27;20051;-84
2022/09/07 04:09:22;;;;;;;4.70;2.80;;;;;;;;;;5128573;27;20038;-83
2022/09/07 04:11:48;;;;;;;7.00;2.85;;;;;;;;;;5126081;27;20046;-83
2022/09/07 04:14:15;;;;;;;4.85;2.80;;;;;;;;;;5117753;27;20050;-83
2022/09/07 04:16:41;;;;;;;5.43;2.55;;;;;;;;;;5131148;27;20047;-83
2022/09/07 04:19:07;;;;;;;5.72;2.70;;;;;;;;;;5151988;27;20049;-84
2022/09/07 04:21:33;;;;;;;4.22;2.90;;;;;;;;;;5144029;27;20039;-84
2022/09/07 04:24:00;;;;;;;5.75;3.20;;;;;;;;;;5114185;27;20051;-83
2022/09/07 04:26:27;;;;;;;5.43;2.90;;;;;;;;;;5131632;27;20058;-84
2022/09/07 04:28:53;;;;;;;4.15;2.55;;;;;;;;;;5147117;27;20047;-84
2022/09/07 04:31:20;;;;;;;5.97;2.60;;;;;;;;;;5135029;27;20054;-83
2022/09/07 04:33:47;;;;;;;5.15;2.70;;;;;;;;;;5131861;27;20078;-83
2022/09/07 04:36:13;;;;;;;3.63;2.33;;;;;;;;;;5138057;27;20035;-83
2022/09/07 04:38:39;;;;;;;3.95;2.40;;;;;;;;;;5114079;27;20424;-83
2022/09/07 04:41:08;;;;;;;3.00;2.30;;;;;;;;;;5140557;27;20093;-83
2022/09/07 04:43:35;;;;;;;2.97;2.50;;;;;;;;;;5134888;27;20058;-83
2022/09/07 04:46:02;;;;;;;5.95;2.67;;;;;;;;;;5133359;27;20039;-83
2022/09/07 04:48:28;;;;;;;3.83;2.25;;;;;;;;;;5137494;27;20046;-84
2022/09/07 04:50:54;;;;;;;3.58;2.30;;;;;;;;;;5115946;27;20039;-83
2022/09/07 04:53:20;;;;;;;3.08;2.53;;;;;;;;;;5141056;27;20399;-83
2022/09/07 04:55:46;;;;;;;3.97;2.80;;;;;;;;;;5112057;27;20084;-84
2022/09/07 04:58:12;;;;;;;4.30;2.83;;;;;;;;;;5113706;27;20114;-83
2022/09/07 05:00:38;;;;;;;5.35;2.60;;;;;;;;;;5110542;27;20047;-84
2022/09/07 05:03:05;;;;;;;5.75;2.50;;;;;;;;;;5129633;27;20046;-84
2022/09/07 05:05:31;;;;;;;7.38;2.80;;;;;;;;;;5110554;27;20186;-84
2022/09/07 05:07:57;;;;;;;4.93;2.90;;;;;;;;;;5133118;27;20077;-84
2022/09/07 05:10:23;;;;;;;4.10;2.40;;;;;;;;;;5146535;27;20758;-83
2022/09/07 05:12:51;;;;;;;3.15;2.30;;;;;;;;;;5131064;27;20046;-84
2022/09/07 05:15:17;;;;;;;3.35;2.45;;;;;;;;;;5142854;27;20501;-84
2022/09/07 05:17:43;;;;;;;4.47;2.70;;;;;;;;;;5146251;27;20085;-84
2022/09/07 05:20:09;;;;;;;6.88;3.67;;;;;;;;;;5126734;27;20132;-84
2022/09/07 05:22:39;;;;;;;6.30;4.13;;;;;;;;;;5114432;27;20046;-84
2022/09/07 05:25:06;;;;;;;4.30;3.17;;;;;;;;;;5123861;27;20047;-83
2022/09/07 05:27:31;;;;;;;4.85;2.85;;;;;;;;;;5128012;27;20401;-84
2022/09/07 05:29:57;;;;;;;3.10;2.88;;;;;;;;;;5132836;27;20047;-84
2022/09/07 05:32:23;;;;;;;3.70;3.10;;;;;;;;;;5137202;27;20099;-83
2022/09/07 05:34:49;;;;;;;3.40;3.10;;;;;;;;;;5123059;27;20038;-84
2022/09/07 05:37:15;;;;;;;6.05;3.42;;;;;;;;;;5127769;27;20042;-83
2022/09/07 05:39:42;;;;;;;6.38;3.10;;;;;;;;;;5123033;27;20091;-84
2022/09/07 05:42:08;;;;;;;5.55;3.20;;;;;;;;;;5141000;27;20075;-84
2022/09/07 05:44:34;;;;;;;5.18;3.45;;;;;;;;;;5121188;27;20547;-83
2022/09/07 05:47:00;;;;;;;5.07;3.20;;;;;;;;;;5122092;27;20071;-83
2022/09/07 05:49:26;;;;;;;6.45;3.35;;;;;;;;;;5137165;27;20070;-84
2022/09/07 05:51:52;;;;;;;7.80;3.90;;;;;;;;;;5150734;27;20132;-83
2022/09/07 05:54:18;;;;;;;5.53;3.25;;;;;;;;;;5130276;27;20798;-84
2022/09/07 05:56:44;;;;;;;5.35;3.50;;;;;;;;;;5153250;27;20116;-84
2022/09/07 05:59:10;;;;;;;5.88;3.40;;;;;;;;;;5140455;27;20081;-83
2022/09/07 06:01:36;;;;;;;5.05;3.60;;;;;;;;;;5147767;27;20380;-84
2022/09/07 06:04:02;;;;;;;4.95;3.22;;;;;;;;;;5147359;27;20087;-83
2022/09/07 06:06:28;;;;;;;4.53;3.60;;;;;;;;;;5134563;27;20049;-84
2022/09/07 06:08:56;;;;;;;6.85;4.10;;;;;;;;;;5136269;27;20126;-83
2022/09/07 06:11:23;;;;;;;7.28;3.70;;;;;;;;;;5118683;27;20035;-83
2022/09/07 06:13:49;;;;;;;6.75;4.10;;;;;;;;;;5140213;27;20074;-83
2022/09/07 06:16:17;;;;;;;9.23;4.13;;;;;;;;;;5160509;27;20114;-83
2022/09/07 06:18:44;;;;;;;6.43;3.90;;;;;;;;;;5123881;27;20497;-83
2022/09/07 06:21:11;;;;;;;7.38;4.13;;;;;;;;;;5123956;27;20050;-84
2022/09/07 06:23:39;;;;;;;5.30;3.65;;;;;;;;;;5121439;27;20502;-83
2022/09/07 06:26:06;;;;;;;5.95;3.67;;;;;;;;;;5139449;27;20674;-82
2022/09/07 06:28:33;;;;;;;6.20;3.80;;;;;;;;;;5141305;27;20039;-83
2022/09/07 06:31:00;;;;;;;4.20;3.80;;;;;;;;;;5138522;27;20118;-83
2022/09/07 06:33:26;;;;;;;4.72;4.03;;;;;;;;;;5134127;27;20049;-82
2022/09/07 06:35:59;;;;;;;5.70;4.00;;;;;;;;;;5137726;27;20042;-82
2022/09/07 06:38:28;;;;;;;6.07;4.40;;;;;;;;;;5133519;27;20047;-83
2022/09/07 06:40:54;;;;;;;8.45;4.05;;;;;;;;;;5144920;27;20475;-83
2022/09/07 06:43:20;;;;;;;6.68;3.70;;;;;;;;;;5127471;27;20047;-84
2022/09/07 06:45:53;;;;;;;6.68;4.22;;;;;;;;;;5138482;27;20096;-84
2022/09/07 06:48:19;;;;;;;5.75;3.70;;;;;;;;;;5140154;27;20501;-83
2022/09/07 06:50:54;;;;;;;5.57;3.65;;;;;;;;;;5130445;27;20126;-84
2022/09/07 06:53:20;;;;;;;4.00;3.60;;;;;;;;;;5126288;27;20103;-85
2022/09/07 06:55:46;;;;;;;6.68;3.60;;;;;;;;;;5134195;27;20050;-84
2022/09/07 06:58:12;;;;;;;5.32;3.67;;;;;;;;;;5119409;27;20127;-84
2022/09/07 07:00:38;;;;;;;4.95;3.20;;;;;;;;;;5130579;27;20042;-83
2022/09/07 07:03:04;;;;;;;4.38;3.40;;;;;;;;;;5127093;27;20049;-84
2022/09/07 07:05:30;;;;;;;7.00;4.22;;;;;;;;;;5124007;27;20482;-84
2022/09/07 07:07:56;;;;;;;6.88;4.00;;;;;;;;;;5126854;27;20047;-83
2022/09/07 07:10:23;;;;;;;7.40;3.90;;;;;;;;;;5139456;27;20126;-84
2022/09/07 07:12:49;;;;;;;6.10;4.60;;;;;;;;;;5146804;27;20038;-85
2022/09/07 07:15:15;;;;;;;5.93;4.35;;;;;;;;;;5143067;27;20061;-84
2022/09/07 07:17:41;;;;;;;6.55;3.85;;;;;;;;;;5133101;27;20047;-84
2022/09/07 07:20:07;;;;;;;4.78;3.90;;;;;;;;;;5124323;27;20391;-86
2022/09/07 07:22:33;;;;;;;4.57;4.10;;;;;;;;;;5153286;27;20050;-86
2022/09/07 07:24:59;;;;;;;3.88;3.58;;;;;;;;;;5113212;27;1054896;-85
2022/09/07 07:27:25;;;;;;;5.60;4.13;;;;;;;;;;5149276;27;20042;-86
2022/09/07 07:29:54;;;;;;;4.30;3.90;;;;;;;;;;5134064;27;20058;-85
2022/09/07 07:32:20;;;;;;;5.60;3.92;;;;;;;;;;5141382;27;20489;-84
2022/09/07 07:35:07;;;;;;;4.40;4.07;;;;;;;;;;5132112;27;20054;-85
2022/09/07 07:37:33;;;;;;;5.05;4.60;;;;;;;;;;5115918;27;20490;-85
2022/09/07 07:39:59;;;;;;;4.85;4.40;;;;;;;;;;5149511;27;20062;-85
2022/09/07 07:42:25;;;;;;;5.75;4.85;;;;;;;;;;5154011;27;20091;-87
2022/09/07 07:44:51;;;;;;;5.00;4.47;;;;;;;;;;5125383;27;20040;-84
2022/09/07 07:47:17;;;;;;;5.28;4.40;;;;;;;;;;5161359;27;20419;-84
2022/09/07 07:49:44;;;;;;;5.90;4.80;;;;;;;;;;5140958;27;20039;-87
2022/09/07 07:52:10;;;;;;;5.32;4.50;;;;;;;;;;5120284;27;20046;-85
2022/09/07 07:54:36;;;;;;;5.43;4.30;;;;;;;;;;5117749;27;20480;-84
2022/09/07 07:57:02;;;;;;;8.15;4.90;;;;;;;;;;5132863;27;20094;-84
2022/09/07 07:59:28;;;;;;;8.32;5.13;;;;;;;;;;5119245;27;20051;-85
2022/09/07 08:01:54;;;;;;;6.20;5.10;;;;;;;;;;5121845;27;20092;-84
2022/09/07 08:04:21;;;;;;;6.95;4.88;;;;;;;;;;5122032;27;20047;-84
2022/09/07 08:06:48;;;;;;;6.00;5.35;;;;;;;;;;5118041;27;20096;-86
2022/09/07 08:09:14;;;;;;;6.43;5.25;;;;;;;;;;5153068;27;20057;-86
2022/09/07 08:11:40;;;;;;;6.07;4.60;;;;;;;;;;5127471;27;20432;-85
2022/09/07 08:14:07;;;;;;;6.95;4.75;;;;;;;;;;5117391;27;20151;-85
2022/09/07 08:16:33;;;;;;;6.32;5.00;;;;;;;;;;5141900;27;20117;-86
2022/09/07 08:19:00;;;;;;;6.03;5.20;;;;;;;;;;5127349;27;20042;-86
2022/09/07 08:21:26;;;;;;;5.35;4.70;;;;;;;;;;5145191;27;20543;-84
2022/09/07 08:23:52;;;;;;;6.93;5.07;;;;;;;;;;5119545;27;20054;-86
2022/09/07 08:26:18;;;;;;;5.43;4.93;;;;;;;;;;5139722;27;20459;-84
2022/09/07 08:28:45;;;;;;;5.78;5.18;;;;;;;;;;5115118;27;20057;-85
2022/09/07 08:31:12;;;;;;;5.68;5.18;;;;;;;;;;5137367;27;20122;-85
2022/09/07 08:33:38;;;;;;;6.05;5.55;;;;;;;;;;5123247;27;20462;-84
2022/09/07 08:36:06;;;;;;;6.63;5.22;;;;;;;;;;5146668;27;20443;-84
2022/09/07 08:38:33;;;;;;;5.68;5.07;;;;;;;;;;5124710;27;20061;-85
2022/09/07 08:41:00;;;;;;;6.40;4.50;;;;;;;;;;5120093;27;20588;-85
2022/09/07 08:43:35;;;;;;;5.07;4.60;;;;;;;;;;5136140;27;20071;-86
2022/09/07 08:46:13;;;;;;;5.05;4.55;;;;;;;;;;5122255;27;20542;-83
2022/09/07 08:48:39;;;;;;;4.80;4.15;;;;;;;;;;5131781;27;20038;-85
2022/09/07 08:51:14;;;;;;;5.35;4.70;;;;;;;;;;5112633;27;20043;-85
2022/09/07 08:53:45;;;;;;;4.97;4.22;;;;;;;;;;5120861;27;20091;-85
2022/09/07 08:56:23;;;;;;;4.53;3.60;;;;;;;;;;5119467;27;20042;-85
2022/09/07 08:58:52;;;;;;;3.90;3.40;;;;;;;;;;5115246;27;20908;-86
2022/09/07 09:01:36;;;;;;;4.90;3.83;;;;;;;;;;5137587;27;20056;-84
2022/09/07 09:04:02;;;;;;;3.60;3.30;;;;;;;;;;5113495;27;20039;-84
2022/09/07 09:06:42;;;;;;;4.47;3.30;;;;;;;;;;5115401;27;20039;-88
2022/09/07 09:09:14;;;;;;;4.00;3.35;;;;;;;;;;5124475;27;20042;-87
2022/09/07 09:11:42;;;;;;;5.85;3.50;;;;;;;;;;5118927;27;20073;-86
2022/09/07 09:14:14;;;;;;;4.75;2.97;;;;;;;;;;5121472;27;20038;-86
2022/09/07 09:16:42;;;;;;;3.37;2.70;;;;;;;;;;5133099;27;20042;-86
2022/09/07 09:19:27;;;;;;;3.33;3.03;;;;;;;;;;5139485;27;20038;-87
2022/09/07 09:22:01;;;;;;;4.15;2.83;;;;;;;;;;5141091;27;20081;-87
2022/09/07 09:24:34;;;;;;;3.67;3.08;;;;;;;;;;5116884;27;20054;-88
2022/09/07 09:27:00;;;;;;;3.63;2.65;;;;;;;;;;5139816;27;20134;-86
2022/09/07 09:29:27;;;;;;;2.85;2.65;;;;;;;;;;5132930;27;20125;-88
2022/09/07 09:31:53;;;;;;;4.80;2.92;;;;;;;;;;5120941;27;20042;-87
2022/09/07 09:34:19;;;;;;;3.90;2.80;;;;;;;;;;5148140;27;20039;-88
2022/09/07 09:36:50;;;;;;;3.25;2.70;;;;;;;;;;5149878;27;20038;-89
2022/09/07 09:39:35;;;;;;;4.25;2.50;;;;;;;;;;5147857;27;20453;-88
2022/09/07 09:42:10;;;;;;;3.80;2.67;;;;;;;;;;5151090;27;20038;-87
2022/09/07 09:44:37;;;;;;;3.65;2.80;;;;;;;;;;5121038;27;20038;-87
2022/09/07 09:47:03;;;;;;;2.95;2.10;;;;;;;;;;5140707;27;20039;-86
2022/09/07 09:49:37;;;;;;;2.78;2.17;;;;;;;;;;5147222;27;20129;-86
2022/09/07 09:52:04;;;;;;;3.08;2.15;;;;;;;;;;5150363;27;20114;-88
2022/09/07 09:54:38;;;;;;;3.80;2.40;;;;;;;;;;5136960;27;20043;-87
2022/09/07 09:57:04;;;;;;;3.60;2.35;;;;;;;;;;5131359;27;20177;-88
2022/09/07 09:59:31;;;;;;;4.10;2.35;;;;;;;;;;5148420;27;20035;-89
2022/09/07 10:01:58;;;;;;;4.30;2.08;;;;;;;;;;5125505;27;20038;-88
2022/09/07 10:04:29;;;;;;;4.28;2.17;;;;;;;;;;5126149;27;20039;-90
2022/09/07 10:06:55;;;;;;;2.90;2.00;;;;;;;;;;5149693;27;20117;-86
2022/09/07 10:09:23;;;;;;;3.25;2.08;;;;;;;;;;5123080;27;20062;-90
2022/09/07 10:11:57;;;;;;;2.92;2.20;;;;;;;;;;5129547;27;20471;-89
2022/09/07 10:14:27;;;;;;;2.75;2.15;;;;;;;;;;5128494;27;20085;-88
2022/09/07 10:16:53;;;;;;;2.22;2.03;;;;;;;;;;5154719;27;20034;-88
2022/09/07 10:19:36;;;;;;;2.20;2.00;;;;;;;;;;5126184;27;20060;-88
2022/09/07 10:22:03;;;;;;;2.97;2.20;;;;;;;;;;5125661;27;20051;-87
2022/09/07 10:24:37;;;;;;;3.47;2.70;;;;;;;;;;5130033;27;20514;-91
2022/09/07 10:27:18;;;;;;;2.85;2.10;;;;;;;;;;5139416;27;20047;-94
2022/09/07 10:29:44;;;;;;;4.00;1.95;;;;;;;;;;5157319;27;20039;-94
2022/09/07 10:32:17;;;;;;;2.95;2.30;;;;;;;;;;5162142;27;20096;-95
2022/09/07 10:34:48;;;;;;;3.20;2.17;;;;;;;;;;5150173;27;20542;-90
2022/09/07 10:37:23;;;;;;;3.10;2.20;;;;;;;;;;5143341;27;20047;-90
2022/09/07 10:39:58;;;;;;;3.72;2.10;;;;;;;;;;5135032;27;20507;-90
2022/09/07 10:42:27;;;;;;;3.42;2.45;;;;;;;;;;5127411;27;20047;-88
2022/09/07 10:45:03;;;;;;;3.90;2.08;;;;;;;;;;5144533;27;20110;-91
2022/09/07 10:47:34;;;;;;;3.67;2.33;;;;;;;;;;5151102;27;20057;-90
2022/09/07 10:50:19;;;;;;;4.15;2.63;;;;;;;;;;5145806;27;20035;-92
2022/09/07 10:52:58;;;;;;;2.03;1.90;;;;;;;;;;5132768;27;20050;-93
2022/09/07 10:55:30;;;;;;;4.13;2.17;;;;;;;;;;5146711;27;20954;-93
2022/09/07 10:58:03;;;;;;;3.88;2.08;;;;;;;;;;5146392;27;20038;-92
2022/09/07 11:00:36;;;;;;;2.22;2.03;;;;;;;;;;5144234;27;20401;-91
2022/09/07 11:03:25;;;;;;;3.15;1.85;;;;;;;;;;5125466;27;20121;-90
2022/09/07 11:05:59;;;;;;;1.90;1.80;;;;;;;;;;5130132;27;20043;-90
2022/09/07 11:08:45;;;;;;;2.15;1.80;;;;;;;;;;5145983;27;20039;-90
2022/09/07 11:11:16;;;;;;;2.20;2.00;;;;;;;;;;5128800;27;20046;-91
2022/09/07 11:13:44;;;;;;;2.13;1.90;;;;;;;;;;5148699;27;20035;-90
2022/09/07 11:16:15;;;;;;;1.90;1.80;;;;;;;;;;5128152;27;20049;-89
2022/09/07 11:18:52;;;;;;;3.85;2.05;;;;;;;;;;5148121;27;20043;-87
2022/09/07 11:21:21;;;;;;;2.63;2.42;;;;;;;;;;5146767;27;20042;-88
2022/09/07 11:24:10;;;;;;;3.55;2.85;;;;;;;;;;5136686;27;20061;-88
2022/09/07 11:26:48;;;;;;;3.28;2.63;;;;;;;;;;5138915;27;20134;-90
2022/09/07 11:29:24;;;;;;;3.25;2.55;;;;;;;;;;5130210;27;20430;-91
2022/09/07 11:31:52;;;;;;;2.90;2.30;;;;;;;;;;5160361;27;20410;-91
2022/09/07 11:34:37;;;;;;;5.32;3.00;;;;;;;;;;5122219;27;20461;-89
2022/09/07 11:37:22;;;;;;;2.88;2.67;;;;;;;;;;5134531;27;20043;-91
2022/09/07 11:39:53;;;;;;;3.78;2.97;;;;;;;;;;5136229;27;20483;-90
2022/09/07 11:42:38;;;;;;;3.15;2.90;;;;;;;;;;5116785;27;20137;-92
2022/09/07 11:45:15;;;;;;;2.85;2.65;;;;;;;;;;5141673;27;20050;-89
2022/09/07 11:47:44;;;;;;;3.80;2.83;;;;;;;;;;5122240;27;20074;-90
2022/09/07 11:50:18;;;;;;;3.67;3.00;;;;;;;;;;5154480;27;20047;-90
2022/09/07 11:52:48;;;;;;;3.00;2.80;;;;;;;;;;5124903;27;20050;-88
2022/09/07 11:55:20;;;;;;;3.22;3.00;;;;;;;;;;5117904;27;20368;-88
2022/09/07 11:57:46;;;;;;;3.55;3.35;;;;;;;;;;5115173;27;20051;-89
2022/09/07 12:00:18;;;;;;;4.32;3.92;;;;;;;;;;5164780;27;20038;-92
2022/09/07 12:02:47;;;;;;;4.65;3.80;;;;;;;;;;5157450;27;20092;-91
2022/09/07 12:05:13;;;;;;;4.47;4.07;;;;;;;;;;5125994;27;20072;-91
2022/09/07 12:07:45;;;;;;;4.88;4.47;;;;;;;;;;5143271;27;20030;-88
2022/09/07 12:10:29;;;;;;;5.20;4.80;;;;;;;;;;5154208;27;20431;-90
2022/09/07 12:13:08;;;;;;;6.13;5.63;;;;;;;;;;5120970;27;20096;-90
2022/09/07 12:15:52;;;;;;;5.80;5.30;;;;;;;;;;5150857;27;20038;-89
2022/09/07 12:18:40;;;;;;;5.20;4.80;;;;;;;;;;5143525;27;20042;-88
2022/09/07 12:21:26;;;;;;;5.40;4.95;;;;;;;;;;5126577;27;20047;-90
2022/09/07 12:23:51;;;;;;;7.65;5.90;;;;;;;;;;5124748;27;20039;-89
2022/09/07 12:26:38;;;;;;;8.05;7.20;;;;;;;;;;5124167;27;20046;-89
2022/09/07 12:29:05;;;;;;;6.13;5.45;;;;;;;;;;5136915;27;20042;-89
2022/09/07 12:32:04;;;;;;;7.07;5.38;;;;;;;;;;5131615;27;20038;-89
2022/09/07 12:34:30;;;;;;;5.45;4.95;;;;;;;;;;5097101;27;20050;-88
2022/09/07 12:37:00;;;;;;;5.40;4.90;;;;;;;;;;5148584;27;20163;-88
2022/09/07 12:39:27;;;;;;;5.68;5.28;;;;;;;;;;5150425;27;20128;-89
2022/09/07 12:42:13;;;;;;;6.07;5.55;;;;;;;;;;5124229;27;20097;-90
2022/09/07 12:44:39;;;;;;;5.88;5.28;;;;;;;;;;5116356;27;20490;-86
2022/09/07 12:47:11;;;;;;;5.72;5.22;;;;;;;;;;5129452;27;20152;-88
2022/09/07 12:50:05;;;;;;;6.35;5.40;;;;;;;;;;5143247;27;20051;-88
2022/09/07 12:52:31;;;;;;;;;;;;;;;;;;5136768;27;20069;-84
2022/09/07 12:55:04;;;;;;;6.25;5.63;;;;;;;;;;5148753;27;19919;-84
2022/09/07 12:57:34;;;;;;;5.40;4.90;;;;;;;;;;5147216;27;20050;-81
2022/09/07 13:00:00;;;;;;;5.57;5.18;;;;;;;;;;5145659;27;20046;-85
2022/09/07 13:02:26;;;;;;;5.35;4.88;;;;;;;;;;5139785;27;20081;-85
2022/09/07 13:04:58;;;;;;;5.35;4.90;;;;;;;;;;5139486;27;20035;-82
2022/09/07 13:07:30;;;;;;;5.72;5.15;;;;;;;;;;5134690;27;20054;-84
2022/09/07 13:09:57;;;;;;;4.70;4.13;;;;;;;;;;5146310;27;20046;-83
2022/09/07 13:12:42;;;;;;;5.82;5.32;;;;;;;;;;5171891;27;20291;-84
2022/09/07 13:15:28;;;;;;;5.18;4.78;;;;;;;;;;5122596;27;20043;-83
2022/09/07 13:17:55;;;;;;;5.35;4.80;;;;;;;;;;5133501;27;20053;-86
2022/09/07 13:20:28;;;;;;;5.13;4.72;;;;;;;;;;5131777;27;20047;-85
2022/09/07 13:22:55;;;;;;;4.93;4.53;;;;;;;;;;5116893;27;20057;-86
2022/09/07 13:25:23;;;;;;;6.20;5.13;;;;;;;;;;5121763;27;20399;-84
2022/09/07 13:27:52;;;;;;;4.65;4.25;;;;;;;;;;5141411;27;20042;-85
2022/09/07 13:30:45;;;;;;;4.00;3.60;;;;;;;;;;5145739;27;20031;-84
2022/09/07 13:33:23;;;;;;;4.47;3.90;;;;;;;;;;5126897;27;20035;-85
2022/09/07 13:35:51;;;;;;;4.20;3.90;;;;;;;;;;5126749;27;20065;-85
2022/09/07 13:38:17;;;;;;;3.85;3.55;;;;;;;;;;5148860;27;20043;-85
2022/09/07 13:40:45;;;;;;;4.90;4.50;;;;;;;;;;5126279;27;20179;-85
2022/09/07 13:43:15;;;;;;;4.93;4.43;;;;;;;;;;5142852;27;20039;-85
2022/09/07 13:45:54;;;;;;;5.30;4.90;;;;;;;;;;5129111;27;20482;-85
2022/09/07 13:48:43;;;;;;;4.97;4.13;;;;;;;;;;5124103;27;20141;-85
2022/09/07 13:51:23;;;;;;;4.35;3.90;;;;;;;;;;5128621;27;20050;-85
2022/09/07 13:53:55;;;;;;;5.13;4.63;;;;;;;;;;5148271;27;20153;-86
2022/09/07 13:56:34;;;;;;;4.30;3.95;;;;;;;;;;5143569;27;20036;-84
2022/09/07 13:59:10;;;;;;;5.45;3.85;;;;;;;;;;5153312;27;20384;-84
2022/09/07 14:01:41;;;;;;;4.20;3.80;;;;;;;;;;5163526;27;20363;-85
2022/09/07 14:04:18;;;;;;;4.38;4.00;;;;;;;;;;5136948;27;20081;-86
2022/09/07 14:06:44;;;;;;;4.20;3.90;;;;;;;;;;5159961;27;20035;-85
2022/09/07 14:09:15;;;;;;;4.82;4.18;;;;;;;;;;5142345;27;20051;-85
2022/09/07 14:11:45;;;;;;;6.28;4.90;;;;;;;;;;5154779;27;20027;-84
2022/09/07 14:14:13;;;;;;;5.95;5.28;;;;;;;;;;5132427;27;20042;-86
2022/09/07 14:16:40;;;;;;;6.20;5.22;;;;;;;;;;5133890;27;20047;-86
2022/09/07 14:19:16;;;;;;;5.63;5.07;;;;;;;;;;5125280;27;20573;-87
2022/09/07 14:21:42;;;;;;;5.90;5.40;;;;;;;;;;5154448;27;20053;-86
2022/09/07 14:24:18;;;;;;;5.65;4.93;;;;;;;;;;5157976;27;20087;-86
2022/09/07 14:26:46;;;;;;;5.88;5.28;;;;;;;;;;5126516;27;20223;-83
2022/09/07 14:29:20;;;;;;;4.88;4.38;;;;;;;;;;5146878;27;20050;-84
2022/09/07 14:31:46;;;;;;;5.63;5.13;;;;;;;;;;5142938;27;20295;-84
2022/09/07 14:34:14;;;;;;;5.40;4.85;;;;;;;;;;5134062;27;20099;-82
2022/09/07 14:36:40;;;;;;;5.97;5.47;;;;;;;;;;5134846;27;20474;-83
2022/09/07 14:39:07;;;;;;;4.55;4.18;;;;;;;;;;5131043;27;20049;-84
2022/09/07 14:41:37;;;;;;;4.18;3.88;;;;;;;;;;5153497;27;20054;-83
2022/09/07 14:44:03;;;;;;;4.10;3.65;;;;;;;;;;5122054;27;20051;-83
2022/09/07 14:46:33;;;;;;;4.47;3.92;;;;;;;;;;5127454;27;20099;-83
2022/09/07 14:49:01;;;;;;;5.47;4.80;;;;;;;;;;5134117;27;20043;-84
2022/09/07 14:51:30;;;;;;;4.40;4.07;;;;;;;;;;5151825;27;20051;-86
2022/09/07 14:53:58;;;;;;;4.40;4.00;;;;;;;;;;5155339;27;20081;-82
2022/09/07 14:56:26;;;;;;;4.25;3.90;;;;;;;;;;5152702;27;20038;-85
2022/09/07 14:58:52;;;;;;;3.97;3.58;;;;;;;;;;5156970;27;20039;-85
2022/09/07 15:01:20;;;;;;;3.83;3.40;;;;;;;;;;5129456;27;20088;-87